Alhambra, California
Current Conditions -  °F | °C
As of 7:45 AM on Thursday 30 Oct 2014 (Local Time) from KEMT Reporting Station
Haze Haze  
Wind Chill: 57°   Ceiling: Unl
Heat Index: 57°   Visibility: 4mi
Dew Point: 48°   Wind: 0mph
Humidity: 72%   Direction: NA
Pressure: 30"   Gusts: NA
Location:  34.09°N, 118.12°W
Report Text: KEMT 301445Z 00000KT 4SM HZ CLR 14/09 A3000
Loading
Personal Weather Stations






























Interactive Weather Map
Tropical Storm Tracking
New forecast layout! Learn more

10-Day Weather Forecast

Advertisements
Track Severe Weather on mobile